createdAt,value
2018-07-27T00:01:49.763Z,101039.00
2018-07-27T00:04:18.885Z,101033.00
2018-07-27T00:06:47.958Z,101032.00
2018-07-27T00:09:17.015Z,101034.00
2018-07-27T00:11:46.226Z,101026.00
2018-07-27T00:14:15.292Z,101020.00
2018-07-27T00:16:44.488Z,101028.00
2018-07-27T00:19:13.549Z,101024.00
2018-07-27T00:21:42.585Z,101024.00
2018-07-27T00:24:11.630Z,101027.00
2018-07-27T00:26:40.710Z,101022.00
2018-07-27T00:29:09.822Z,101021.00
2018-07-27T00:31:39.048Z,101019.00
2018-07-27T00:34:08.278Z,101019.00
2018-07-27T00:36:37.561Z,101024.00
2018-07-27T00:39:09.781Z,101030.00
2018-07-27T00:41:39.028Z,101035.00
2018-07-27T00:44:08.253Z,101028.00
2018-07-27T00:46:37.343Z,101024.00
2018-07-27T00:49:06.638Z,101025.00
2018-07-27T00:51:35.727Z,101029.00
2018-07-27T00:54:04.795Z,101024.00
2018-07-27T00:56:33.828Z,101023.00
2018-07-27T00:59:02.953Z,101023.00
2018-07-27T01:01:32.080Z,101015.00
2018-07-27T01:04:01.153Z,101017.00
2018-07-27T01:06:30.205Z,101012.00
2018-07-27T01:08:59.255Z,101008.00
2018-07-27T01:11:28.342Z,101020.00
2018-07-27T01:13:57.170Z,101010.00
2018-07-27T01:16:26.232Z,101006.00
2018-07-27T01:18:55.327Z,101010.00
2018-07-27T01:21:24.396Z,101007.00
2018-07-27T01:23:53.480Z,101006.00
2018-07-27T01:26:22.503Z,101005.00
2018-07-27T01:28:51.575Z,101003.00
2018-07-27T01:31:20.417Z,101006.00
2018-07-27T01:33:52.168Z,101012.00
2018-07-27T01:36:21.338Z,101006.00
2018-07-27T01:38:50.501Z,101009.00
2018-07-27T01:41:19.676Z,101005.00
2018-07-27T01:43:48.818Z,101007.00
2018-07-27T01:46:18.638Z,101010.00
2018-07-27T01:48:47.798Z,101008.00
2018-07-27T01:51:16.892Z,101006.00
2018-07-27T01:53:45.987Z,101006.00
2018-07-27T01:56:15.056Z,100996.00
2018-07-27T01:58:44.097Z,101004.00
2018-07-27T02:01:13.161Z,101005.00
2018-07-27T02:03:42.186Z,101002.00
2018-07-27T02:06:11.323Z,101001.00
2018-07-27T02:08:40.417Z,100997.00
2018-07-27T02:11:09.601Z,100999.00
2018-07-27T02:13:38.674Z,100996.00
2018-07-27T02:16:07.764Z,100996.00
2018-07-27T02:18:36.793Z,100994.00
2018-07-27T02:21:06.379Z,100991.00
2018-07-27T02:23:35.477Z,100995.00
2018-07-27T02:26:04.490Z,100990.00
2018-07-27T02:28:33.562Z,100981.00
2018-07-27T02:31:02.619Z,100987.00
2018-07-27T02:33:31.745Z,100986.00
2018-07-27T02:36:00.844Z,100983.00
2018-07-27T02:38:30.008Z,100978.00
2018-07-27T02:40:59.204Z,100975.00
2018-07-27T02:43:28.552Z,100977.00
2018-07-27T02:45:57.671Z,100978.00
2018-07-27T02:48:26.754Z,100982.00
2018-07-27T02:50:55.895Z,100977.00
2018-07-27T02:53:24.946Z,100981.00
2018-07-27T02:55:54.077Z,100980.00
2018-07-27T02:58:23.108Z,100974.00
2018-07-27T03:00:52.145Z,100974.00
2018-07-27T03:03:21.455Z,100969.00
2018-07-27T03:05:50.621Z,100978.00
2018-07-27T03:08:19.644Z,100970.00
2018-07-27T03:10:48.705Z,100967.00
2018-07-27T03:13:17.800Z,100967.00
2018-07-27T03:15:46.847Z,100976.00
2018-07-27T03:18:15.937Z,100962.00
2018-07-27T03:20:44.974Z,100971.00
2018-07-27T03:23:14.186Z,100981.00
2018-07-27T03:25:43.267Z,100972.00
2018-07-27T03:28:12.365Z,100972.00
2018-07-27T03:30:41.513Z,100969.00
2018-07-27T03:33:11.018Z,100972.00
2018-07-27T03:35:40.111Z,100973.00
2018-07-27T03:38:09.371Z,100969.00
2018-07-27T03:40:38.513Z,100970.00
2018-07-27T03:43:07.751Z,100976.00
2018-07-27T03:45:37.212Z,100970.00
2018-07-27T03:48:09.440Z,100963.00
2018-07-27T03:50:40.436Z,100972.00
2018-07-27T03:53:10.193Z,100971.00
2018-07-27T03:55:39.385Z,100978.00
2018-07-27T03:58:08.797Z,100970.00
2018-07-27T04:00:37.913Z,100973.00
2018-07-27T04:03:06.992Z,100972.00
2018-07-27T04:05:36.061Z,100973.00
2018-07-27T04:08:05.151Z,100977.00
2018-07-27T04:10:34.193Z,100986.00
2018-07-27T04:13:03.247Z,100983.00
2018-07-27T04:15:32.310Z,100981.00
2018-07-27T04:18:02.165Z,100985.00
2018-07-27T04:20:31.732Z,100977.00
2018-07-27T04:23:00.798Z,100981.00
2018-07-27T04:25:29.832Z,100979.00
2018-07-27T04:27:58.975Z,100978.00
2018-07-27T04:30:28.007Z,100971.00
2018-07-27T04:32:57.166Z,100970.00
2018-07-27T04:35:26.248Z,100966.00
2018-07-27T04:37:55.332Z,100968.00
2018-07-27T04:40:24.425Z,100972.00
2018-07-27T04:42:53.553Z,100973.00
2018-07-27T04:45:22.720Z,100977.00
2018-07-27T04:47:51.866Z,100973.00
2018-07-27T04:50:21.221Z,100977.00
2018-07-27T04:52:50.396Z,100980.00
2018-07-27T04:55:20.227Z,100981.00
2018-07-27T04:57:49.729Z,100984.00
2018-07-27T05:00:19.330Z,100985.00
2018-07-27T05:02:48.661Z,100978.00
2018-07-27T05:05:18.005Z,100981.00
2018-07-27T05:07:47.096Z,100985.00
2018-07-27T05:10:21.618Z,100979.00
2018-07-27T05:12:51.456Z,100986.00
2018-07-27T05:15:20.644Z,100994.00
2018-07-27T05:17:49.705Z,100987.00
2018-07-27T05:20:18.813Z,100991.00
2018-07-27T05:22:47.854Z,100986.00
2018-07-27T05:25:16.929Z,100986.00
2018-07-27T05:27:46.052Z,100988.00
2018-07-27T05:30:15.124Z,100982.00
2018-07-27T05:32:44.210Z,100984.00
2018-07-27T05:35:13.587Z,100983.00
2018-07-27T05:37:42.657Z,100976.00
2018-07-27T05:40:11.793Z,100974.00
2018-07-27T05:42:40.912Z,100985.00
2018-07-27T05:45:10.069Z,100980.00
2018-07-27T05:47:39.160Z,100979.00
2018-07-27T05:50:08.359Z,100984.00
2018-07-27T05:52:37.557Z,100986.00
2018-07-27T05:55:06.626Z,100984.00
2018-07-27T05:57:35.539Z,100986.00
2018-07-27T06:00:06.585Z,100975.00
2018-07-27T06:02:35.695Z,100996.00
2018-07-27T06:05:05.698Z,100981.00
2018-07-27T06:07:35.201Z,100986.00
2018-07-27T06:10:05.190Z,100985.00
2018-07-27T06:12:34.542Z,100987.00
2018-07-27T06:15:03.825Z,100982.00
2018-07-27T06:17:33.059Z,100972.00
2018-07-27T06:20:02.272Z,100978.00
2018-07-27T06:22:31.429Z,100971.00
2018-07-27T06:25:00.558Z,100974.00
2018-07-27T06:27:29.498Z,100970.00
2018-07-27T06:29:59.527Z,100976.00
2018-07-27T06:32:28.582Z,100975.00
2018-07-27T06:34:57.677Z,100962.00
2018-07-27T06:37:26.942Z,100971.00
2018-07-27T06:39:56.026Z,100980.00
2018-07-27T06:42:25.090Z,100974.00
2018-07-27T06:44:54.255Z,100968.00
2018-07-27T06:47:23.350Z,100966.00
2018-07-27T06:49:52.658Z,100971.00
2018-07-27T06:52:21.838Z,100964.00
2018-07-27T06:54:51.129Z,100969.00
2018-07-27T06:57:20.394Z,100969.00
2018-07-27T06:59:49.533Z,100969.00
2018-07-27T07:02:18.899Z,100961.00
2018-07-27T07:04:48.396Z,100958.00
2018-07-27T07:07:17.676Z,100957.00
2018-07-27T07:09:47.121Z,100947.00
2018-07-27T07:12:16.735Z,100959.00
2018-07-27T07:14:46.347Z,100958.00
2018-07-27T07:17:15.867Z,100957.00
2018-07-27T07:19:44.843Z,100957.00
2018-07-27T07:22:14.161Z,100957.00
2018-07-27T07:24:43.516Z,100955.00
2018-07-27T07:27:12.865Z,100954.00
2018-07-27T07:29:42.120Z,100957.00
2018-07-27T07:32:11.203Z,100950.00
2018-07-27T07:34:40.335Z,100953.00
2018-07-27T07:37:09.512Z,100949.00
2018-07-27T07:39:38.627Z,100949.00
2018-07-27T07:42:07.729Z,100942.00
2018-07-27T07:44:36.889Z,100943.00
2018-07-27T07:47:06.160Z,100945.00
2018-07-27T07:49:35.288Z,100945.00
2018-07-27T07:52:04.426Z,100944.00
2018-07-27T07:54:33.629Z,100941.00
2018-07-27T07:57:02.719Z,100939.00
2018-07-27T07:59:31.798Z,100939.00
2018-07-27T08:02:01.080Z,100933.00
2018-07-27T08:04:30.155Z,100934.00
2018-07-27T08:06:59.267Z,100939.00
2018-07-27T08:09:28.449Z,100933.00
2018-07-27T08:11:57.622Z,100941.00
2018-07-27T08:14:26.803Z,100937.00
2018-07-27T08:16:56.003Z,100938.00
2018-07-27T08:19:25.280Z,100934.00
2018-07-27T08:21:54.570Z,100931.00
2018-07-27T08:24:24.117Z,100933.00
2018-07-27T08:26:59.349Z,100929.00
2018-07-27T08:29:30.961Z,100813.00
2018-07-27T08:32:00.977Z,100928.00
2018-07-27T08:34:30.364Z,100926.00
2018-07-27T08:37:00.057Z,100920.00
2018-07-27T08:39:30.975Z,100923.00
2018-07-27T08:42:00.420Z,100919.00
2018-07-27T08:44:31.042Z,100915.00
2018-07-27T08:47:00.535Z,100925.00
2018-07-27T08:49:29.778Z,100916.00
2018-07-27T08:51:59.149Z,100911.00
2018-07-27T08:54:28.553Z,100913.00
2018-07-27T08:56:57.826Z,100906.00
2018-07-27T08:59:27.036Z,100906.00
2018-07-27T09:01:56.146Z,100904.00
2018-07-27T09:04:25.218Z,100906.00
2018-07-27T09:06:54.379Z,100898.00
2018-07-27T09:09:23.526Z,100899.00
2018-07-27T09:11:52.746Z,100885.00
2018-07-27T09:14:21.819Z,100890.00
2018-07-27T09:16:51.004Z,100890.00
2018-07-27T09:19:20.146Z,100894.00
2018-07-27T09:21:49.236Z,100896.00
2018-07-27T09:24:18.376Z,100885.00
2018-07-27T09:26:47.440Z,100891.00
2018-07-27T09:29:16.669Z,100891.00
2018-07-27T09:31:45.791Z,100887.00
2018-07-27T09:34:14.995Z,100884.00
2018-07-27T09:36:44.081Z,100886.00
2018-07-27T09:39:13.871Z,100890.00
2018-07-27T09:41:43.349Z,100889.00
2018-07-27T09:44:13.402Z,100882.00
2018-07-27T09:46:42.831Z,100880.00
2018-07-27T09:49:12.550Z,100878.00
2018-07-27T09:51:43.187Z,100880.00
2018-07-27T09:54:13.221Z,100876.00
2018-07-27T09:56:43.887Z,100870.00
2018-07-27T09:59:14.253Z,100871.00
2018-07-27T10:01:44.187Z,100874.00
2018-07-27T10:04:14.227Z,100861.00
2018-07-27T10:06:44.692Z,100876.00
2018-07-27T10:09:14.921Z,100862.00
2018-07-27T10:11:45.298Z,100850.00
2018-07-27T10:14:15.537Z,100851.00
2018-07-27T10:16:46.141Z,100845.00
2018-07-27T10:19:15.616Z,100852.00
2018-07-27T10:21:46.415Z,100838.00
2018-07-27T10:24:15.814Z,100845.00
2018-07-27T10:26:45.455Z,100831.00
2018-07-27T10:29:15.314Z,100830.00
2018-07-27T10:31:45.189Z,100826.00
2018-07-27T10:34:14.920Z,100823.00
2018-07-27T10:36:45.041Z,100825.00
2018-07-27T10:39:15.274Z,100828.00
2018-07-27T10:41:45.328Z,100832.00
2018-07-27T10:44:15.614Z,100801.00
2018-07-27T10:46:46.114Z,100827.00
2018-07-27T10:49:17.594Z,100811.00
2018-07-27T10:51:47.421Z,100820.00
2018-07-27T10:54:17.117Z,100809.00
2018-07-27T10:56:47.237Z,100810.00
2018-07-27T10:59:17.056Z,100813.00
2018-07-27T11:01:46.253Z,100810.00
2018-07-27T11:04:15.820Z,100806.00
2018-07-27T11:06:45.314Z,100808.00
2018-07-27T11:09:14.538Z,100789.00
2018-07-27T11:11:43.678Z,100798.00
2018-07-27T11:14:12.568Z,100788.00
2018-07-27T11:16:41.674Z,100793.00
2018-07-27T11:19:10.806Z,100799.00
2018-07-27T11:21:39.878Z,100781.00
2018-07-27T11:24:09.042Z,100789.00
2018-07-27T11:26:38.138Z,100777.00
2018-07-27T11:29:07.376Z,100788.00
2018-07-27T11:31:36.522Z,100779.00
2018-07-27T11:34:05.653Z,100775.00
2018-07-27T11:36:34.844Z,100772.00
2018-07-27T11:39:05.994Z,100766.00
2018-07-27T11:41:35.161Z,100766.00
2018-07-27T11:44:04.555Z,100766.00
2018-07-27T11:46:33.843Z,100760.00
2018-07-27T11:49:03.119Z,100757.00
2018-07-27T11:51:32.698Z,100755.00
2018-07-27T11:54:01.905Z,100750.00
2018-07-27T11:56:31.197Z,100743.00
2018-07-27T11:59:00.546Z,100736.00
2018-07-27T12:01:29.879Z,100736.00
2018-07-27T12:03:59.359Z,100731.00
2018-07-27T12:06:28.972Z,100728.00
2018-07-27T12:08:58.564Z,100723.00
2018-07-27T12:11:27.722Z,100727.00
2018-07-27T12:13:56.709Z,100733.00
2018-07-27T12:16:25.928Z,100737.00
2018-07-27T12:18:55.120Z,100724.00
2018-07-27T12:21:24.260Z,100724.00
2018-07-27T12:23:54.239Z,100719.00
2018-07-27T12:26:23.878Z,100716.00
2018-07-27T12:28:52.946Z,100718.00
2018-07-27T12:31:22.316Z,100712.00
2018-07-27T12:33:51.478Z,100709.00
2018-07-27T12:36:20.604Z,100715.00
2018-07-27T12:38:49.815Z,100713.00
2018-07-27T12:41:19.039Z,100712.00
2018-07-27T12:43:48.232Z,100714.00
2018-07-27T12:46:17.338Z,100695.00
2018-07-27T12:48:46.401Z,100708.00
2018-07-27T12:51:15.536Z,100701.00
2018-07-27T12:53:44.683Z,100700.00
2018-07-27T12:56:13.909Z,100690.00
2018-07-27T12:58:43.637Z,100685.00
2018-07-27T13:01:12.761Z,100678.00
2018-07-27T13:03:42.156Z,100674.00
2018-07-27T13:06:11.583Z,100670.00
2018-07-27T13:08:40.934Z,100674.00
2018-07-27T13:11:10.819Z,100665.00
2018-07-27T13:13:40.316Z,100672.00
2018-07-27T13:16:09.756Z,100658.00
2018-07-27T13:18:39.048Z,100655.00
2018-07-27T13:21:08.385Z,100653.00
2018-07-27T13:23:37.957Z,100656.00
2018-07-27T13:26:28.700Z,100648.00
2018-07-27T13:28:43.098Z,100644.00
2018-07-27T13:31:13.169Z,100644.00
2018-07-27T13:35:01.871Z,100644.00
2018-07-27T13:37:32.336Z,100645.00
2018-07-27T13:40:03.503Z,100648.00
2018-07-27T13:42:33.838Z,100645.00
2018-07-27T13:45:03.029Z,100637.00
2018-07-27T13:47:32.126Z,100636.00
2018-07-27T13:50:01.353Z,100629.00
2018-07-27T13:52:30.495Z,100631.00
2018-07-27T13:54:59.537Z,100628.00
2018-07-27T13:57:28.674Z,100622.00
2018-07-27T13:59:57.791Z,100620.00
2018-07-27T14:02:27.061Z,100617.00
2018-07-27T14:04:56.174Z,100615.00
2018-07-27T14:07:25.796Z,100605.00
2018-07-27T14:09:55.131Z,100613.00
2018-07-27T14:12:25.032Z,100611.00
2018-07-27T14:14:54.630Z,100599.00
2018-07-27T14:17:24.244Z,100608.00
2018-07-27T14:19:53.738Z,100610.00
2018-07-27T14:22:23.321Z,100611.00
2018-07-27T14:24:52.701Z,100604.00
2018-07-27T14:27:22.001Z,100600.00
2018-07-27T14:29:51.392Z,100602.00
2018-07-27T14:32:20.755Z,100607.00
2018-07-27T14:34:50.474Z,100607.00
2018-07-27T14:37:19.773Z,100598.00
2018-07-27T14:39:49.963Z,100590.00
2018-07-27T14:42:19.775Z,100589.00
2018-07-27T14:44:49.237Z,100595.00
2018-07-27T14:47:18.673Z,100589.00
2018-07-27T14:49:48.097Z,100591.00
2018-07-27T14:52:17.351Z,100583.00
2018-07-27T14:54:46.604Z,100552.00
2018-07-27T14:57:15.782Z,100570.00
2018-07-27T14:59:44.990Z,100561.00
2018-07-27T15:02:14.582Z,100567.00
2018-07-27T15:04:44.045Z,100562.00
2018-07-27T15:07:13.167Z,100567.00
2018-07-27T15:09:42.314Z,100569.00
2018-07-27T15:12:11.818Z,100559.00
2018-07-27T15:14:40.879Z,100566.00
2018-07-27T15:17:10.144Z,100570.00
2018-07-27T15:19:39.608Z,100573.00
2018-07-27T15:22:08.847Z,100557.00
2018-07-27T15:24:38.222Z,100565.00
2018-07-27T15:27:07.594Z,100565.00
2018-07-27T15:29:37.909Z,100567.00
2018-07-27T15:32:07.317Z,100577.00
2018-07-27T15:34:36.577Z,100569.00
2018-07-27T15:37:05.928Z,100563.00
2018-07-27T15:39:36.345Z,100556.00
2018-07-27T15:42:06.095Z,100559.00
2018-07-27T15:44:35.282Z,100550.00
2018-07-27T15:47:04.639Z,100554.00
2018-07-27T15:49:34.246Z,100544.00
2018-07-27T15:52:04.517Z,100550.00
2018-07-27T15:54:33.919Z,100549.00
2018-07-27T15:57:03.136Z,100553.00
2018-07-27T15:59:32.391Z,100557.00
2018-07-27T16:02:01.547Z,100555.00
2018-07-27T16:04:30.697Z,100541.00
2018-07-27T16:06:59.840Z,100545.00
2018-07-27T16:09:29.120Z,100548.00
2018-07-27T16:11:58.259Z,100538.00
2018-07-27T16:14:27.537Z,100548.00
2018-07-27T16:17:00.561Z,100538.00
2018-07-27T16:19:32.045Z,100541.00
2018-07-27T16:22:01.820Z,100537.00
2018-07-27T16:24:31.924Z,100530.00
2018-07-27T16:27:01.060Z,100535.00
2018-07-27T16:29:29.978Z,100531.00
2018-07-27T16:31:59.117Z,100532.00
2018-07-27T16:34:28.725Z,100534.00
2018-07-27T16:36:57.911Z,100528.00
2018-07-27T16:39:27.630Z,100524.00
2018-07-27T16:41:56.741Z,100526.00
2018-07-27T16:44:26.019Z,100540.00
2018-07-27T16:46:55.281Z,100522.00
2018-07-27T16:49:24.472Z,100527.00
2018-07-27T16:51:53.679Z,100535.00
2018-07-27T16:54:23.030Z,100529.00
2018-07-27T16:56:52.218Z,100526.00
2018-07-27T16:59:21.578Z,100524.00
2018-07-27T17:01:50.914Z,100531.00
2018-07-27T17:04:22.338Z,100534.00
2018-07-27T17:06:52.047Z,100531.00
2018-07-27T17:09:22.072Z,100541.00
2018-07-27T17:11:51.338Z,100521.00
2018-07-27T17:14:20.773Z,100533.00
2018-07-27T17:16:50.235Z,100526.00
2018-07-27T17:19:19.495Z,100530.00
2018-07-27T17:21:49.621Z,100525.00
2018-07-27T17:24:19.590Z,100525.00
2018-07-27T17:26:49.128Z,100519.00
2018-07-27T17:29:18.854Z,100515.00
2018-07-27T17:31:48.346Z,100512.00
2018-07-27T17:34:17.491Z,100514.00
2018-07-27T17:36:46.552Z,100509.00
2018-07-27T17:39:15.609Z,100514.00
2018-07-27T17:41:44.768Z,100507.00
2018-07-27T17:44:14.128Z,100527.00
2018-07-27T17:46:43.318Z,100522.00
2018-07-27T17:49:12.463Z,100516.00
2018-07-27T17:51:41.688Z,100526.00
2018-07-27T17:54:11.050Z,100531.00
2018-07-27T17:56:41.214Z,100531.00
2018-07-27T17:59:10.504Z,100524.00
2018-07-27T18:01:39.961Z,100523.00
2018-07-27T18:04:09.331Z,100518.00
2018-07-27T18:06:38.417Z,100524.00
2018-07-27T18:09:11.197Z,100532.00
2018-07-27T18:11:40.960Z,100529.00
2018-07-27T18:14:10.451Z,100533.00
2018-07-27T18:16:39.928Z,100543.00
2018-07-27T18:19:09.379Z,100530.00
2018-07-27T18:21:38.961Z,100535.00
2018-07-27T18:24:08.750Z,100544.00
2018-07-27T18:26:38.142Z,100540.00
2018-07-27T18:29:07.409Z,100538.00
2018-07-27T18:31:36.877Z,100542.00
2018-07-27T18:34:06.125Z,100544.00
2018-07-27T18:36:35.782Z,100539.00
2018-07-27T18:39:08.864Z,100546.00
2018-07-27T18:41:38.083Z,100553.00
2018-07-27T18:44:07.809Z,100544.00
2018-07-27T18:46:37.990Z,100541.00
2018-07-27T18:49:07.513Z,100542.00
2018-07-27T18:51:36.720Z,100542.00
2018-07-27T18:54:06.273Z,100550.00
2018-07-27T18:56:35.962Z,100548.00
2018-07-27T18:59:05.222Z,100551.00
2018-07-27T19:01:34.831Z,100518.00
2018-07-27T19:04:05.929Z,100547.00
2018-07-27T19:06:35.480Z,100545.00
2018-07-27T19:09:07.531Z,100550.00
2018-07-27T19:11:37.152Z,100547.00
2018-07-27T19:14:07.296Z,100537.00
2018-07-27T19:16:36.581Z,100546.00
2018-07-27T19:19:06.145Z,100546.00
2018-07-27T19:21:35.843Z,100537.00
2018-07-27T19:24:05.099Z,100539.00
2018-07-27T19:26:34.386Z,100536.00
2018-07-27T19:29:03.567Z,100539.00
2018-07-27T19:31:32.861Z,100537.00
2018-07-27T19:34:02.168Z,100534.00
2018-07-27T19:36:31.385Z,100529.00
2018-07-27T19:39:00.691Z,100535.00
2018-07-27T19:41:29.977Z,100529.00
2018-07-27T19:44:00.334Z,100529.00
2018-07-27T19:46:29.720Z,100524.00
2018-07-27T19:48:58.857Z,100531.00
2018-07-27T19:51:27.975Z,100521.00
2018-07-27T19:53:57.262Z,100524.00
2018-07-27T19:56:26.504Z,100534.00
2018-07-27T19:58:55.748Z,100527.00
2018-07-27T20:01:25.850Z,100528.00
2018-07-27T20:03:55.152Z,100525.00
2018-07-27T20:06:24.409Z,100522.00
2018-07-27T20:08:53.616Z,100528.00
2018-07-27T20:11:22.769Z,100521.00
2018-07-27T20:13:52.170Z,100528.00
2018-07-27T20:16:21.374Z,100530.00
2018-07-27T20:18:51.067Z,100523.00
2018-07-27T20:21:20.709Z,100531.00
2018-07-27T20:23:50.108Z,100522.00
2018-07-27T20:26:19.775Z,100527.00
2018-07-27T20:28:49.301Z,100523.00
2018-07-27T20:31:18.640Z,100533.00
2018-07-27T20:33:47.922Z,100525.00
2018-07-27T20:36:18.099Z,100526.00
2018-07-27T20:38:47.406Z,100514.00
2018-07-27T20:41:23.196Z,100516.00
2018-07-27T20:43:53.323Z,100515.00
2018-07-27T20:46:24.155Z,100518.00
2018-07-27T20:48:53.512Z,100509.00
2018-07-27T20:51:22.837Z,100511.00
2018-07-27T20:53:53.212Z,100513.00
2018-07-27T20:56:23.079Z,100531.00
2018-07-27T20:58:53.123Z,100520.00
2018-07-27T21:01:22.268Z,100522.00
2018-07-27T21:03:51.467Z,100513.00
2018-07-27T21:06:20.683Z,100513.00
2018-07-27T21:08:49.736Z,100508.00
2018-07-27T21:11:18.834Z,100495.00
2018-07-27T21:13:48.097Z,100500.00
2018-07-27T21:16:17.191Z,100495.00
2018-07-27T21:18:46.266Z,100496.00
2018-07-27T21:21:15.374Z,100496.00
2018-07-27T21:23:44.495Z,100480.00
2018-07-27T21:26:13.619Z,100484.00
2018-07-27T21:28:42.921Z,100477.00
2018-07-27T21:31:12.142Z,100482.00
2018-07-27T21:33:41.184Z,100479.00
2018-07-27T21:36:10.362Z,100470.00
2018-07-27T21:38:39.731Z,100478.00
2018-07-27T21:41:08.874Z,100468.00
2018-07-27T21:43:37.985Z,100471.00
2018-07-27T21:46:07.314Z,100472.00
2018-07-27T21:48:36.720Z,100468.00
2018-07-27T21:51:06.008Z,100471.00
2018-07-27T21:53:35.353Z,100474.00
2018-07-27T21:56:04.646Z,100472.00
2018-07-27T21:58:34.120Z,100468.00
2018-07-27T22:01:03.430Z,100467.00
2018-07-27T22:03:32.694Z,100467.00
2018-07-27T22:06:02.214Z,100462.00
2018-07-27T22:08:31.349Z,100472.00
2018-07-27T22:11:00.431Z,100465.00
2018-07-27T22:13:29.353Z,100457.00
2018-07-27T22:15:58.417Z,100452.00
2018-07-27T22:18:27.541Z,100458.00
2018-07-27T22:20:56.673Z,100458.00
2018-07-27T22:23:25.768Z,100464.00
2018-07-27T22:25:54.902Z,100456.00
2018-07-27T22:28:24.030Z,100468.00
2018-07-27T22:30:53.182Z,100464.00
2018-07-27T22:33:22.282Z,100468.00
2018-07-27T22:35:51.345Z,100465.00
2018-07-27T22:38:20.462Z,100469.00
2018-07-27T22:40:49.573Z,100473.00
2018-07-27T22:43:18.751Z,100470.00
2018-07-27T22:45:47.935Z,100472.00
2018-07-27T22:48:17.198Z,100464.00
2018-07-27T22:50:46.700Z,100477.00
2018-07-27T22:53:16.002Z,100474.00
2018-07-27T22:55:45.217Z,100477.00
2018-07-27T22:58:14.505Z,100475.00
2018-07-27T23:00:43.902Z,100465.00
2018-07-27T23:03:13.220Z,100472.00
2018-07-27T23:05:44.197Z,100473.00
2018-07-27T23:08:13.501Z,100476.00
2018-07-27T23:10:42.755Z,100474.00
2018-07-27T23:13:11.913Z,100478.00
2018-07-27T23:15:41.001Z,100474.00
2018-07-27T23:18:10.046Z,100477.00
2018-07-27T23:20:39.192Z,100474.00
2018-07-27T23:23:08.260Z,100475.00
2018-07-27T23:25:37.305Z,100475.00
2018-07-27T23:28:06.652Z,100474.00
2018-07-27T23:30:35.801Z,100469.00
2018-07-27T23:33:04.945Z,100470.00
2018-07-27T23:35:34.010Z,100459.00
2018-07-27T23:38:03.336Z,100460.00
2018-07-27T23:40:32.467Z,100467.00
2018-07-27T23:43:01.686Z,100463.00
2018-07-27T23:45:30.807Z,100465.00
2018-07-27T23:47:59.897Z,100470.00
2018-07-27T23:50:28.958Z,100468.00
2018-07-27T23:52:58.088Z,100466.00
2018-07-27T23:55:27.266Z,100462.00
2018-07-27T23:57:56.580Z,100461.00
